sensor_id;sensor_type;location;lat;lon;timestamp;P1;durP1;ratioP1;P2;durP2;ratioP2
52456;SDS011;38369;52.840;7.082;2022-10-16T00:01:41;5.57;;;2.17;;
52456;SDS011;38369;52.840;7.082;2022-10-16T00:04:08;9.55;;;2.80;;
52456;SDS011;38369;52.840;7.082;2022-10-16T00:06:35;7.57;;;2.90;;
52456;SDS011;38369;52.840;7.082;2022-10-16T00:09:01;9.27;;;3.00;;
52456;SDS011;38369;52.840;7.082;2022-10-16T00:11:28;12.43;;;2.83;;
52456;SDS011;38369;52.840;7.082;2022-10-16T00:13:55;8.68;;;2.92;;
52456;SDS011;38369;52.840;7.082;2022-10-16T00:16:22;5.70;;;2.75;;
52456;SDS011;38369;52.840;7.082;2022-10-16T00:18:48;6.00;;;3.08;;
52456;SDS011;38369;52.840;7.082;2022-10-16T00:21:16;8.95;;;3.58;;
52456;SDS011;38369;52.840;7.082;2022-10-16T00:23:42;6.78;;;2.53;;
52456;SDS011;38369;52.840;7.082;2022-10-16T00:26:11;9.20;;;2.70;;
52456;SDS011;38369;52.840;7.082;2022-10-16T00:28:38;5.47;;;2.67;;
52456;SDS011;38369;52.840;7.082;2022-10-16T00:31:05;5.95;;;2.97;;
52456;SDS011;38369;52.840;7.082;2022-10-16T00:33:31;8.35;;;2.28;;
52456;SDS011;38369;52.840;7.082;2022-10-16T00:35:58;9.57;;;2.53;;
52456;SDS011;38369;52.840;7.082;2022-10-16T00:38:24;4.75;;;2.58;;
52456;SDS011;38369;52.840;7.082;2022-10-16T00:40:50;5.25;;;2.30;;
52456;SDS011;38369;52.840;7.082;2022-10-16T00:46:02;5.65;;;2.65;;
52456;SDS011;38369;52.840;7.082;2022-10-16T00:48:29;6.75;;;2.83;;
52456;SDS011;38369;52.840;7.082;2022-10-16T00:50:56;4.85;;;2.55;;
52456;SDS011;38369;52.840;7.082;2022-10-16T00:53:22;6.53;;;3.00;;
52456;SDS011;38369;52.840;7.082;2022-10-16T00:55:49;6.50;;;2.63;;
52456;SDS011;38369;52.840;7.082;2022-10-16T00:58:15;7.50;;;2.80;;
52456;SDS011;38369;52.840;7.082;2022-10-16T01:00:41;3.42;;;2.20;;
52456;SDS011;38369;52.840;7.082;2022-10-16T01:03:24;6.47;;;2.65;;
52456;SDS011;38369;52.840;7.082;2022-10-16T01:05:54;7.82;;;2.67;;
52456;SDS011;38369;52.840;7.082;2022-10-16T01:08:29;8.05;;;2.53;;
52456;SDS011;38369;52.840;7.082;2022-10-16T01:10:59;14.07;;;2.60;;
52456;SDS011;38369;52.840;7.082;2022-10-16T01:13:30;10.27;;;3.00;;
52456;SDS011;38369;52.840;7.082;2022-10-16T01:16:05;6.07;;;3.00;;
52456;SDS011;38369;52.840;7.082;2022-10-16T01:18:37;7.40;;;2.85;;
52456;SDS011;38369;52.840;7.082;2022-10-16T01:21:06;8.18;;;2.50;;
52456;SDS011;38369;52.840;7.082;2022-10-16T01:23:36;4.68;;;1.88;;
52456;SDS011;38369;52.840;7.082;2022-10-16T01:28:47;5.03;;;1.83;;
52456;SDS011;38369;52.840;7.082;2022-10-16T01:31:17;6.53;;;1.95;;
52456;SDS011;38369;52.840;7.082;2022-10-16T01:33:48;8.27;;;3.08;;
52456;SDS011;38369;52.840;7.082;2022-10-16T01:36:18;5.88;;;1.90;;
52456;SDS011;38369;52.840;7.082;2022-10-16T01:38:47;5.40;;;2.28;;
52456;SDS011;38369;52.840;7.082;2022-10-16T01:41:20;6.97;;;2.70;;
52456;SDS011;38369;52.840;7.082;2022-10-16T01:46:32;5.65;;;2.60;;
52456;SDS011;38369;52.840;7.082;2022-10-16T01:48:59;7.50;;;2.17;;
52456;SDS011;38369;52.840;7.082;2022-10-16T01:51:26;6.50;;;2.10;;
52456;SDS011;38369;52.840;7.082;2022-10-16T01:53:54;5.75;;;2.28;;
52456;SDS011;38369;52.840;7.082;2022-10-16T01:56:21;4.63;;;2.30;;
52456;SDS011;38369;52.840;7.082;2022-10-16T01:59:09;7.43;;;2.33;;
52456;SDS011;38369;52.840;7.082;2022-10-16T02:01:37;7.97;;;2.25;;
52456;SDS011;38369;52.840;7.082;2022-10-16T02:06:48;8.75;;;2.88;;
52456;SDS011;38369;52.840;7.082;2022-10-16T02:09:15;9.45;;;3.17;;
52456;SDS011;38369;52.840;7.082;2022-10-16T02:11:42;4.47;;;2.22;;
52456;SDS011;38369;52.840;7.082;2022-10-16T02:14:08;3.30;;;2.17;;
52456;SDS011;38369;52.840;7.082;2022-10-16T02:16:44;6.28;;;1.85;;
52456;SDS011;38369;52.840;7.082;2022-10-16T02:19:11;6.70;;;2.90;;
52456;SDS011;38369;52.840;7.082;2022-10-16T02:21:51;6.07;;;2.03;;
52456;SDS011;38369;52.840;7.082;2022-10-16T02:26:52;7.93;;;2.38;;
52456;SDS011;38369;52.840;7.082;2022-10-16T02:29:24;5.07;;;2.00;;
52456;SDS011;38369;52.840;7.082;2022-10-16T02:31:52;5.75;;;2.30;;
52456;SDS011;38369;52.840;7.082;2022-10-16T02:34:20;8.15;;;2.80;;
52456;SDS011;38369;52.840;7.082;2022-10-16T02:36:46;3.67;;;1.85;;
52456;SDS011;38369;52.840;7.082;2022-10-16T02:39:13;4.25;;;2.40;;
52456;SDS011;38369;52.840;7.082;2022-10-16T02:41:39;14.57;;;2.65;;
52456;SDS011;38369;52.840;7.082;2022-10-16T02:44:05;4.43;;;1.98;;
52456;SDS011;38369;52.840;7.082;2022-10-16T02:46:31;3.90;;;2.47;;
52456;SDS011;38369;52.840;7.082;2022-10-16T02:48:57;5.35;;;2.08;;
52456;SDS011;38369;52.840;7.082;2022-10-16T02:51:23;4.13;;;1.92;;
52456;SDS011;38369;52.840;7.082;2022-10-16T02:53:49;3.30;;;2.30;;
52456;SDS011;38369;52.840;7.082;2022-10-16T02:56:15;9.65;;;2.50;;
52456;SDS011;38369;52.840;7.082;2022-10-16T02:58:41;6.03;;;1.90;;
52456;SDS011;38369;52.840;7.082;2022-10-16T03:01:07;5.00;;;2.13;;
52456;SDS011;38369;52.840;7.082;2022-10-16T03:03:33;4.45;;;2.25;;
52456;SDS011;38369;52.840;7.082;2022-10-16T03:05:59;8.63;;;2.33;;
52456;SDS011;38369;52.840;7.082;2022-10-16T03:08:25;6.47;;;2.25;;
52456;SDS011;38369;52.840;7.082;2022-10-16T03:10:51;3.58;;;1.88;;
52456;SDS011;38369;52.840;7.082;2022-10-16T03:13:17;6.38;;;1.95;;
52456;SDS011;38369;52.840;7.082;2022-10-16T03:15:45;4.20;;;2.20;;
52456;SDS011;38369;52.840;7.082;2022-10-16T03:18:11;5.55;;;1.85;;
52456;SDS011;38369;52.840;7.082;2022-10-16T03:20:38;4.43;;;1.95;;
52456;SDS011;38369;52.840;7.082;2022-10-16T03:23:04;6.65;;;2.47;;
52456;SDS011;38369;52.840;7.082;2022-10-16T03:25:30;6.43;;;2.20;;
52456;SDS011;38369;52.840;7.082;2022-10-16T03:27:56;4.10;;;1.83;;
52456;SDS011;38369;52.840;7.082;2022-10-16T03:30:22;5.60;;;2.58;;
52456;SDS011;38369;52.840;7.082;2022-10-16T03:32:48;6.22;;;1.98;;
52456;SDS011;38369;52.840;7.082;2022-10-16T03:35:18;5.72;;;2.03;;
52456;SDS011;38369;52.840;7.082;2022-10-16T03:37:44;5.68;;;2.28;;
52456;SDS011;38369;52.840;7.082;2022-10-16T03:40:10;3.58;;;2.30;;
52456;SDS011;38369;52.840;7.082;2022-10-16T03:42:37;6.45;;;2.38;;
52456;SDS011;38369;52.840;7.082;2022-10-16T03:45:03;5.68;;;2.30;;
52456;SDS011;38369;52.840;7.082;2022-10-16T03:47:29;7.15;;;3.28;;
52456;SDS011;38369;52.840;7.082;2022-10-16T03:49:55;4.88;;;2.63;;
52456;SDS011;38369;52.840;7.082;2022-10-16T03:52:21;8.38;;;2.60;;
52456;SDS011;38369;52.840;7.082;2022-10-16T03:54:47;4.03;;;2.67;;
52456;SDS011;38369;52.840;7.082;2022-10-16T03:57:13;4.80;;;2.25;;
52456;SDS011;38369;52.840;7.082;2022-10-16T03:59:39;6.40;;;2.83;;
52456;SDS011;38369;52.840;7.082;2022-10-16T04:02:05;7.05;;;2.60;;
52456;SDS011;38369;52.840;7.082;2022-10-16T04:04:31;4.03;;;2.35;;
52456;SDS011;38369;52.840;7.082;2022-10-16T04:06:57;3.72;;;2.42;;
52456;SDS011;38369;52.840;7.082;2022-10-16T04:09:23;5.55;;;2.72;;
52456;SDS011;38369;52.840;7.082;2022-10-16T04:11:49;4.65;;;3.03;;
52456;SDS011;38369;52.840;7.082;2022-10-16T04:14:15;6.65;;;3.50;;
52456;SDS011;38369;52.840;7.082;2022-10-16T04:16:42;12.80;;;3.10;;
52456;SDS011;38369;52.840;7.082;2022-10-16T04:19:09;7.03;;;3.22;;
52456;SDS011;38369;52.840;7.082;2022-10-16T04:21:35;5.10;;;3.13;;
52456;SDS011;38369;52.840;7.082;2022-10-16T04:24:01;6.00;;;3.17;;
52456;SDS011;38369;52.840;7.082;2022-10-16T04:26:28;6.13;;;3.33;;
52456;SDS011;38369;52.840;7.082;2022-10-16T04:28:54;4.50;;;2.88;;
52456;SDS011;38369;52.840;7.082;2022-10-16T04:31:20;4.30;;;3.17;;
52456;SDS011;38369;52.840;7.082;2022-10-16T04:33:46;11.55;;;3.83;;
52456;SDS011;38369;52.840;7.082;2022-10-16T04:36:12;5.03;;;3.38;;
52456;SDS011;38369;52.840;7.082;2022-10-16T04:38:38;5.57;;;3.65;;
52456;SDS011;38369;52.840;7.082;2022-10-16T04:41:05;6.78;;;3.70;;
52456;SDS011;38369;52.840;7.082;2022-10-16T04:43:31;6.50;;;3.60;;
52456;SDS011;38369;52.840;7.082;2022-10-16T04:45:57;4.78;;;3.22;;
52456;SDS011;38369;52.840;7.082;2022-10-16T04:48:23;6.53;;;3.47;;
52456;SDS011;38369;52.840;7.082;2022-10-16T04:50:49;5.50;;;3.88;;
52456;SDS011;38369;52.840;7.082;2022-10-16T04:53:15;6.75;;;3.63;;
52456;SDS011;38369;52.840;7.082;2022-10-16T04:55:42;6.85;;;4.53;;
52456;SDS011;38369;52.840;7.082;2022-10-16T04:58:08;6.93;;;3.92;;
52456;SDS011;38369;52.840;7.082;2022-10-16T05:00:34;7.60;;;3.80;;
52456;SDS011;38369;52.840;7.082;2022-10-16T05:03:01;6.18;;;4.45;;
52456;SDS011;38369;52.840;7.082;2022-10-16T05:05:31;6.75;;;3.90;;
52456;SDS011;38369;52.840;7.082;2022-10-16T05:07:57;5.50;;;3.38;;
52456;SDS011;38369;52.840;7.082;2022-10-16T05:10:23;4.82;;;3.85;;
52456;SDS011;38369;52.840;7.082;2022-10-16T05:12:49;6.07;;;3.80;;
52456;SDS011;38369;52.840;7.082;2022-10-16T05:15:16;6.50;;;4.00;;
52456;SDS011;38369;52.840;7.082;2022-10-16T05:17:42;9.80;;;4.40;;
52456;SDS011;38369;52.840;7.082;2022-10-16T05:20:08;6.78;;;3.83;;
52456;SDS011;38369;52.840;7.082;2022-10-16T05:22:34;8.13;;;4.50;;
52456;SDS011;38369;52.840;7.082;2022-10-16T05:25:00;5.75;;;3.78;;
52456;SDS011;38369;52.840;7.082;2022-10-16T05:27:26;10.48;;;4.65;;
52456;SDS011;38369;52.840;7.082;2022-10-16T05:29:52;6.47;;;5.18;;
52456;SDS011;38369;52.840;7.082;2022-10-16T05:32:18;8.27;;;4.25;;
52456;SDS011;38369;52.840;7.082;2022-10-16T05:34:44;7.85;;;4.63;;
52456;SDS011;38369;52.840;7.082;2022-10-16T05:37:11;7.30;;;4.45;;
52456;SDS011;38369;52.840;7.082;2022-10-16T05:39:37;8.48;;;4.50;;
52456;SDS011;38369;52.840;7.082;2022-10-16T05:42:04;4.80;;;3.85;;
52456;SDS011;38369;52.840;7.082;2022-10-16T05:44:30;4.43;;;3.95;;
52456;SDS011;38369;52.840;7.082;2022-10-16T05:46:56;7.28;;;4.22;;
52456;SDS011;38369;52.840;7.082;2022-10-16T05:49:22;6.85;;;4.25;;
52456;SDS011;38369;52.840;7.082;2022-10-16T05:51:49;5.47;;;3.90;;
52456;SDS011;38369;52.840;7.082;2022-10-16T05:54:15;7.65;;;4.60;;
52456;SDS011;38369;52.840;7.082;2022-10-16T05:56:41;6.07;;;3.97;;
52456;SDS011;38369;52.840;7.082;2022-10-16T05:59:07;5.82;;;3.95;;
52456;SDS011;38369;52.840;7.082;2022-10-16T06:01:33;5.90;;;4.03;;
52456;SDS011;38369;52.840;7.082;2022-10-16T06:04:00;9.68;;;4.20;;
52456;SDS011;38369;52.840;7.082;2022-10-16T06:06:26;10.23;;;4.20;;
52456;SDS011;38369;52.840;7.082;2022-10-16T06:08:53;9.45;;;4.07;;
52456;SDS011;38369;52.840;7.082;2022-10-16T06:11:24;5.88;;;4.07;;
52456;SDS011;38369;52.840;7.082;2022-10-16T06:13:51;5.18;;;3.83;;
52456;SDS011;38369;52.840;7.082;2022-10-16T06:16:17;9.02;;;4.35;;
52456;SDS011;38369;52.840;7.082;2022-10-16T06:18:43;6.45;;;3.58;;
52456;SDS011;38369;52.840;7.082;2022-10-16T06:21:11;7.97;;;3.78;;
52456;SDS011;38369;52.840;7.082;2022-10-16T06:23:38;8.32;;;3.83;;
52456;SDS011;38369;52.840;7.082;2022-10-16T06:26:07;5.90;;;3.65;;
52456;SDS011;38369;52.840;7.082;2022-10-16T06:28:33;6.00;;;3.97;;
52456;SDS011;38369;52.840;7.082;2022-10-16T06:31:00;6.43;;;3.95;;
52456;SDS011;38369;52.840;7.082;2022-10-16T06:33:26;9.45;;;3.63;;
52456;SDS011;38369;52.840;7.082;2022-10-16T06:35:52;6.13;;;3.95;;
52456;SDS011;38369;52.840;7.082;2022-10-16T06:38:18;5.60;;;3.53;;
52456;SDS011;38369;52.840;7.082;2022-10-16T06:40:44;5.55;;;3.08;;
52456;SDS011;38369;52.840;7.082;2022-10-16T06:43:10;6.70;;;3.50;;
52456;SDS011;38369;52.840;7.082;2022-10-16T06:45:36;8.40;;;3.92;;
52456;SDS011;38369;52.840;7.082;2022-10-16T06:48:02;7.50;;;3.85;;
52456;SDS011;38369;52.840;7.082;2022-10-16T06:50:28;6.20;;;4.13;;
52456;SDS011;38369;52.840;7.082;2022-10-16T06:52:54;6.05;;;3.13;;
52456;SDS011;38369;52.840;7.082;2022-10-16T06:55:20;6.93;;;3.53;;
52456;SDS011;38369;52.840;7.082;2022-10-16T06:57:47;7.63;;;3.00;;
52456;SDS011;38369;52.840;7.082;2022-10-16T07:00:13;5.97;;;3.05;;
52456;SDS011;38369;52.840;7.082;2022-10-16T07:02:39;9.07;;;3.38;;
52456;SDS011;38369;52.840;7.082;2022-10-16T07:05:06;5.22;;;3.83;;
52456;SDS011;38369;52.840;7.082;2022-10-16T07:07:32;7.78;;;3.10;;
52456;SDS011;38369;52.840;7.082;2022-10-16T07:09:58;4.85;;;3.15;;
52456;SDS011;38369;52.840;7.082;2022-10-16T07:12:24;6.45;;;3.20;;
52456;SDS011;38369;52.840;7.082;2022-10-16T07:14:50;4.95;;;3.00;;
52456;SDS011;38369;52.840;7.082;2022-10-16T07:17:17;9.18;;;3.60;;
52456;SDS011;38369;52.840;7.082;2022-10-16T07:19:44;6.22;;;3.17;;
52456;SDS011;38369;52.840;7.082;2022-10-16T07:22:10;7.68;;;2.85;;
52456;SDS011;38369;52.840;7.082;2022-10-16T07:24:36;4.57;;;2.92;;
52456;SDS011;38369;52.840;7.082;2022-10-16T07:27:02;9.02;;;3.47;;
52456;SDS011;38369;52.840;7.082;2022-10-16T07:29:28;6.18;;;3.08;;
52456;SDS011;38369;52.840;7.082;2022-10-16T07:31:54;6.78;;;2.80;;
52456;SDS011;38369;52.840;7.082;2022-10-16T07:34:20;5.90;;;2.72;;
52456;SDS011;38369;52.840;7.082;2022-10-16T07:36:47;5.70;;;2.80;;
52456;SDS011;38369;52.840;7.082;2022-10-16T07:39:13;8.23;;;2.90;;
52456;SDS011;38369;52.840;7.082;2022-10-16T07:41:39;6.13;;;3.72;;
52456;SDS011;38369;52.840;7.082;2022-10-16T07:44:05;4.07;;;2.60;;
52456;SDS011;38369;52.840;7.082;2022-10-16T07:46:31;6.57;;;3.08;;
52456;SDS011;38369;52.840;7.082;2022-10-16T07:48:59;5.53;;;2.67;;
52456;SDS011;38369;52.840;7.082;2022-10-16T07:51:25;4.88;;;2.60;;
52456;SDS011;38369;52.840;7.082;2022-10-16T07:53:52;6.15;;;2.30;;
52456;SDS011;38369;52.840;7.082;2022-10-16T07:56:19;4.88;;;2.53;;
52456;SDS011;38369;52.840;7.082;2022-10-16T07:58:45;4.43;;;2.38;;
52456;SDS011;38369;52.840;7.082;2022-10-16T08:01:12;6.28;;;2.70;;
52456;SDS011;38369;52.840;7.082;2022-10-16T08:03:38;5.03;;;2.22;;
52456;SDS011;38369;52.840;7.082;2022-10-16T08:06:04;6.35;;;2.13;;
52456;SDS011;38369;52.840;7.082;2022-10-16T08:08:30;5.45;;;2.30;;
52456;SDS011;38369;52.840;7.082;2022-10-16T08:10:57;8.55;;;2.90;;
52456;SDS011;38369;52.840;7.082;2022-10-16T08:13:23;4.50;;;2.47;;
52456;SDS011;38369;52.840;7.082;2022-10-16T08:15:49;4.25;;;2.05;;
52456;SDS011;38369;52.840;7.082;2022-10-16T08:18:15;4.82;;;2.08;;
52456;SDS011;38369;52.840;7.082;2022-10-16T08:20:41;9.60;;;2.30;;
52456;SDS011;38369;52.840;7.082;2022-10-16T08:23:09;4.70;;;2.30;;
52456;SDS011;38369;52.840;7.082;2022-10-16T08:25:35;5.82;;;2.30;;
52456;SDS011;38369;52.840;7.082;2022-10-16T08:28:05;7.18;;;2.00;;
52456;SDS011;38369;52.840;7.082;2022-10-16T08:30:31;4.72;;;1.83;;
52456;SDS011;38369;52.840;7.082;2022-10-16T08:32:57;4.05;;;2.17;;
52456;SDS011;38369;52.840;7.082;2022-10-16T08:35:24;4.03;;;1.95;;
52456;SDS011;38369;52.840;7.082;2022-10-16T08:37:50;4.60;;;1.90;;
52456;SDS011;38369;52.840;7.082;2022-10-16T08:40:17;4.75;;;2.10;;
52456;SDS011;38369;52.840;7.082;2022-10-16T08:50:28;4.72;;;1.80;;
52456;SDS011;38369;52.840;7.082;2022-10-16T08:52:55;4.03;;;1.90;;
52456;SDS011;38369;52.840;7.082;2022-10-16T08:55:37;4.22;;;1.67;;
52456;SDS011;38369;52.840;7.082;2022-10-16T08:58:11;7.32;;;1.92;;
52456;SDS011;38369;52.840;7.082;2022-10-16T09:00:38;3.83;;;1.92;;
52456;SDS011;38369;52.840;7.082;2022-10-16T09:05:36;6.00;;;1.80;;
52456;SDS011;38369;52.840;7.082;2022-10-16T09:08:15;6.55;;;1.95;;
52456;SDS011;38369;52.840;7.082;2022-10-16T09:13:29;7.15;;;1.95;;
52456;SDS011;38369;52.840;7.082;2022-10-16T09:21:27;6.03;;;1.65;;
52456;SDS011;38369;52.840;7.082;2022-10-16T09:23:59;4.43;;;2.00;;
52456;SDS011;38369;52.840;7.082;2022-10-16T09:26:30;5.28;;;1.80;;
52456;SDS011;38369;52.840;7.082;2022-10-16T09:28:56;7.15;;;1.63;;
52456;SDS011;38369;52.840;7.082;2022-10-16T09:31:22;6.88;;;2.10;;
52456;SDS011;38369;52.840;7.082;2022-10-16T09:33:52;8.00;;;2.13;;
52456;SDS011;38369;52.840;7.082;2022-10-16T09:36:19;11.93;;;2.22;;
52456;SDS011;38369;52.840;7.082;2022-10-16T09:38:46;8.82;;;2.15;;
52456;SDS011;38369;52.840;7.082;2022-10-16T09:41:16;7.25;;;1.95;;
52456;SDS011;38369;52.840;7.082;2022-10-16T09:43:52;6.93;;;1.95;;
52456;SDS011;38369;52.840;7.082;2022-10-16T09:46:24;3.88;;;1.80;;
52456;SDS011;38369;52.840;7.082;2022-10-16T09:48:53;7.70;;;1.98;;
52456;SDS011;38369;52.840;7.082;2022-10-16T09:51:20;4.35;;;1.35;;
52456;SDS011;38369;52.840;7.082;2022-10-16T09:53:47;11.05;;;1.80;;
52456;SDS011;38369;52.840;7.082;2022-10-16T09:56:27;6.85;;;1.90;;
52456;SDS011;38369;52.840;7.082;2022-10-16T09:58:55;9.57;;;1.70;;
52456;SDS011;38369;52.840;7.082;2022-10-16T10:01:22;6.43;;;1.80;;
52456;SDS011;38369;52.840;7.082;2022-10-16T10:03:49;3.42;;;1.35;;
52456;SDS011;38369;52.840;7.082;2022-10-16T10:06:24;7.50;;;1.55;;
52456;SDS011;38369;52.840;7.082;2022-10-16T10:08:58;7.60;;;1.80;;
52456;SDS011;38369;52.840;7.082;2022-10-16T10:14:15;6.13;;;1.83;;
52456;SDS011;38369;52.840;7.082;2022-10-16T10:16:42;8.73;;;2.38;;
52456;SDS011;38369;52.840;7.082;2022-10-16T10:19:27;10.30;;;3.03;;
52456;SDS011;38369;52.840;7.082;2022-10-16T10:21:53;8.73;;;2.05;;
52456;SDS011;38369;52.840;7.082;2022-10-16T10:24:19;8.93;;;2.28;;
52456;SDS011;38369;52.840;7.082;2022-10-16T10:31:53;9.68;;;1.77;;
52456;SDS011;38369;52.840;7.082;2022-10-16T10:37:00;9.93;;;1.90;;
52456;SDS011;38369;52.840;7.082;2022-10-16T10:39:33;9.77;;;1.60;;
52456;SDS011;38369;52.840;7.082;2022-10-16T10:47:16;9.40;;;2.03;;
52456;SDS011;38369;52.840;7.082;2022-10-16T10:54:55;11.15;;;1.73;;
52456;SDS011;38369;52.840;7.082;2022-10-16T10:57:30;12.27;;;2.63;;
52456;SDS011;38369;52.840;7.082;2022-10-16T11:08:02;10.98;;;1.92;;
52456;SDS011;38369;52.840;7.082;2022-10-16T11:10:31;7.10;;;1.65;;
52456;SDS011;38369;52.840;7.082;2022-10-16T11:15:44;6.97;;;1.75;;
52456;SDS011;38369;52.840;7.082;2022-10-16T11:18:16;6.30;;;1.70;;
52456;SDS011;38369;52.840;7.082;2022-10-16T11:20:46;11.65;;;2.95;;
52456;SDS011;38369;52.840;7.082;2022-10-16T11:25:39;6.07;;;1.88;;
52456;SDS011;38369;52.840;7.082;2022-10-16T11:28:11;10.88;;;2.65;;
52456;SDS011;38369;52.840;7.082;2022-10-16T11:31:02;10.93;;;2.75;;
52456;SDS011;38369;52.840;7.082;2022-10-16T11:38:27;13.65;;;2.85;;
52456;SDS011;38369;52.840;7.082;2022-10-16T11:40:56;9.97;;;1.90;;
52456;SDS011;38369;52.840;7.082;2022-10-16T11:43:25;6.65;;;2.58;;
52456;SDS011;38369;52.840;7.082;2022-10-16T11:45:57;11.23;;;2.27;;
52456;SDS011;38369;52.840;7.082;2022-10-16T11:48:27;8.95;;;1.95;;
52456;SDS011;38369;52.840;7.082;2022-10-16T11:50:57;6.38;;;1.90;;
52456;SDS011;38369;52.840;7.082;2022-10-16T11:53:45;9.35;;;2.05;;
52456;SDS011;38369;52.840;7.082;2022-10-16T11:56:15;7.25;;;1.77;;
52456;SDS011;38369;52.840;7.082;2022-10-16T12:07:02;7.80;;;2.10;;
52456;SDS011;38369;52.840;7.082;2022-10-16T12:09:30;8.82;;;1.40;;
52456;SDS011;38369;52.840;7.082;2022-10-16T12:11:57;13.10;;;1.85;;
52456;SDS011;38369;52.840;7.082;2022-10-16T12:16:56;6.55;;;1.23;;
52456;SDS011;38369;52.840;7.082;2022-10-16T12:19:25;14.73;;;2.13;;
52456;SDS011;38369;52.840;7.082;2022-10-16T12:21:52;10.82;;;2.20;;
52456;SDS011;38369;52.840;7.082;2022-10-16T12:24:36;9.18;;;1.75;;
52456;SDS011;38369;52.840;7.082;2022-10-16T12:27:04;10.32;;;2.58;;
52456;SDS011;38369;52.840;7.082;2022-10-16T12:29:40;9.48;;;2.03;;
52456;SDS011;38369;52.840;7.082;2022-10-16T12:34:54;7.85;;;2.20;;
52456;SDS011;38369;52.840;7.082;2022-10-16T12:37:22;8.18;;;1.48;;
52456;SDS011;38369;52.840;7.082;2022-10-16T12:39:49;7.25;;;1.80;;
52456;SDS011;38369;52.840;7.082;2022-10-16T12:44:45;9.45;;;1.85;;
52456;SDS011;38369;52.840;7.082;2022-10-16T12:49:51;13.68;;;2.40;;
52456;SDS011;38369;52.840;7.082;2022-10-16T12:52:25;10.95;;;1.88;;
52456;SDS011;38369;52.840;7.082;2022-10-16T12:54:55;9.43;;;2.10;;
52456;SDS011;38369;52.840;7.082;2022-10-16T12:57:33;7.82;;;2.00;;
52456;SDS011;38369;52.840;7.082;2022-10-16T13:10:04;9.05;;;1.70;;
52456;SDS011;38369;52.840;7.082;2022-10-16T13:23:25;7.55;;;1.38;;
52456;SDS011;38369;52.840;7.082;2022-10-16T13:28:27;11.73;;;2.22;;
52456;SDS011;38369;52.840;7.082;2022-10-16T13:30:54;7.82;;;1.55;;
52456;SDS011;38369;52.840;7.082;2022-10-16T13:33:30;5.80;;;1.83;;
52456;SDS011;38369;52.840;7.082;2022-10-16T13:35:57;13.50;;;2.03;;
52456;SDS011;38369;52.840;7.082;2022-10-16T13:38:31;7.40;;;2.25;;
52456;SDS011;38369;52.840;7.082;2022-10-16T13:43:45;6.85;;;1.58;;
52456;SDS011;38369;52.840;7.082;2022-10-16T13:46:17;10.13;;;1.63;;
52456;SDS011;38369;52.840;7.082;2022-10-16T13:48:44;9.73;;;1.50;;
52456;SDS011;38369;52.840;7.082;2022-10-16T13:51:14;4.35;;;1.20;;
52456;SDS011;38369;52.840;7.082;2022-10-16T13:56:07;6.45;;;1.73;;
52456;SDS011;38369;52.840;7.082;2022-10-16T13:58:34;6.07;;;1.58;;
52456;SDS011;38369;52.840;7.082;2022-10-16T14:01:04;8.60;;;2.05;;
52456;SDS011;38369;52.840;7.082;2022-10-16T14:03:31;7.63;;;1.83;;
52456;SDS011;38369;52.840;7.082;2022-10-16T14:06:02;10.38;;;1.67;;
52456;SDS011;38369;52.840;7.082;2022-10-16T14:08:29;8.25;;;1.92;;
52456;SDS011;38369;52.840;7.082;2022-10-16T14:10:59;8.90;;;1.95;;
52456;SDS011;38369;52.840;7.082;2022-10-16T14:13:31;9.77;;;2.00;;
52456;SDS011;38369;52.840;7.082;2022-10-16T14:15:58;8.57;;;1.70;;
52456;SDS011;38369;52.840;7.082;2022-10-16T14:18:26;10.93;;;2.03;;
52456;SDS011;38369;52.840;7.082;2022-10-16T14:20:53;7.07;;;1.73;;
52456;SDS011;38369;52.840;7.082;2022-10-16T14:23:30;6.22;;;1.30;;
52456;SDS011;38369;52.840;7.082;2022-10-16T14:29:10;12.80;;;2.03;;
52456;SDS011;38369;52.840;7.082;2022-10-16T14:31:37;8.48;;;2.00;;
52456;SDS011;38369;52.840;7.082;2022-10-16T14:34:04;8.15;;;1.77;;
52456;SDS011;38369;52.840;7.082;2022-10-16T14:36:31;7.60;;;1.83;;
52456;SDS011;38369;52.840;7.082;2022-10-16T14:41:25;7.07;;;1.90;;
52456;SDS011;38369;52.840;7.082;2022-10-16T14:43:56;9.60;;;1.50;;
52456;SDS011;38369;52.840;7.082;2022-10-16T14:46:28;5.95;;;1.45;;
52456;SDS011;38369;52.840;7.082;2022-10-16T14:49:13;8.25;;;2.60;;
52456;SDS011;38369;52.840;7.082;2022-10-16T14:51:41;8.13;;;1.67;;
52456;SDS011;38369;52.840;7.082;2022-10-16T14:54:09;6.63;;;2.03;;
52456;SDS011;38369;52.840;7.082;2022-10-16T14:56:42;6.57;;;1.55;;
52456;SDS011;38369;52.840;7.082;2022-10-16T14:59:16;6.45;;;2.08;;
52456;SDS011;38369;52.840;7.082;2022-10-16T15:01:43;6.82;;;2.13;;
52456;SDS011;38369;52.840;7.082;2022-10-16T15:04:10;6.97;;;1.42;;
52456;SDS011;38369;52.840;7.082;2022-10-16T15:06:37;12.05;;;2.78;;
52456;SDS011;38369;52.840;7.082;2022-10-16T15:09:03;9.20;;;2.05;;
52456;SDS011;38369;52.840;7.082;2022-10-16T15:11:29;11.07;;;2.33;;
52456;SDS011;38369;52.840;7.082;2022-10-16T15:13:56;10.15;;;1.98;;
52456;SDS011;38369;52.840;7.082;2022-10-16T15:16:23;12.65;;;2.75;;
52456;SDS011;38369;52.840;7.082;2022-10-16T15:18:49;12.75;;;2.17;;
52456;SDS011;38369;52.840;7.082;2022-10-16T15:21:25;6.32;;;1.65;;
52456;SDS011;38369;52.840;7.082;2022-10-16T15:23:52;11.95;;;2.75;;
52456;SDS011;38369;52.840;7.082;2022-10-16T15:26:18;10.00;;;3.15;;
52456;SDS011;38369;52.840;7.082;2022-10-16T15:28:44;13.43;;;3.08;;
52456;SDS011;38369;52.840;7.082;2022-10-16T15:31:10;9.38;;;2.13;;
52456;SDS011;38369;52.840;7.082;2022-10-16T15:33:36;7.07;;;2.33;;
52456;SDS011;38369;52.840;7.082;2022-10-16T15:36:02;7.88;;;2.50;;
52456;SDS011;38369;52.840;7.082;2022-10-16T15:38:28;8.93;;;2.55;;
52456;SDS011;38369;52.840;7.082;2022-10-16T15:40:55;10.45;;;2.38;;
52456;SDS011;38369;52.840;7.082;2022-10-16T15:43:22;13.98;;;2.67;;
52456;SDS011;38369;52.840;7.082;2022-10-16T15:46:22;8.32;;;1.85;;
52456;SDS011;38369;52.840;7.082;2022-10-16T15:48:40;8.50;;;2.35;;
52456;SDS011;38369;52.840;7.082;2022-10-16T15:51:07;9.63;;;1.80;;
52456;SDS011;38369;52.840;7.082;2022-10-16T15:53:33;8.10;;;1.45;;
52456;SDS011;38369;52.840;7.082;2022-10-16T15:56:03;5.32;;;1.45;;
52456;SDS011;38369;52.840;7.082;2022-10-16T15:58:29;6.80;;;1.85;;
52456;SDS011;38369;52.840;7.082;2022-10-16T16:00:56;10.52;;;2.63;;
52456;SDS011;38369;52.840;7.082;2022-10-16T16:03:22;8.70;;;2.20;;
52456;SDS011;38369;52.840;7.082;2022-10-16T16:05:48;12.32;;;2.35;;
52456;SDS011;38369;52.840;7.082;2022-10-16T16:08:14;10.52;;;2.20;;
52456;SDS011;38369;52.840;7.082;2022-10-16T16:10:41;10.20;;;2.10;;
52456;SDS011;38369;52.840;7.082;2022-10-16T16:13:07;10.38;;;2.45;;
52456;SDS011;38369;52.840;7.082;2022-10-16T16:15:34;8.85;;;2.70;;
52456;SDS011;38369;52.840;7.082;2022-10-16T16:18:00;6.72;;;2.00;;
52456;SDS011;38369;52.840;7.082;2022-10-16T16:20:27;11.00;;;2.13;;
52456;SDS011;38369;52.840;7.082;2022-10-16T16:22:53;12.20;;;2.90;;
52456;SDS011;38369;52.840;7.082;2022-10-16T16:25:19;14.50;;;3.45;;
52456;SDS011;38369;52.840;7.082;2022-10-16T16:27:45;9.98;;;2.40;;
52456;SDS011;38369;52.840;7.082;2022-10-16T16:30:11;7.07;;;2.20;;
52456;SDS011;38369;52.840;7.082;2022-10-16T16:32:38;11.35;;;2.85;;
52456;SDS011;38369;52.840;7.082;2022-10-16T16:35:04;11.18;;;2.60;;
52456;SDS011;38369;52.840;7.082;2022-10-16T16:37:30;6.30;;;2.58;;
52456;SDS011;38369;52.840;7.082;2022-10-16T16:39:56;6.60;;;1.90;;
52456;SDS011;38369;52.840;7.082;2022-10-16T16:42:26;10.30;;;3.38;;
52456;SDS011;38369;52.840;7.082;2022-10-16T16:44:52;11.95;;;4.80;;
52456;SDS011;38369;52.840;7.082;2022-10-16T16:47:18;12.23;;;6.05;;
52456;SDS011;38369;52.840;7.082;2022-10-16T16:49:44;23.73;;;6.35;;
52456;SDS011;38369;52.840;7.082;2022-10-16T16:52:11;19.48;;;5.82;;
52456;SDS011;38369;52.840;7.082;2022-10-16T16:54:38;14.40;;;3.90;;